Time;durP1;ratioP1;P1;durP2;ratioP2;P2;SDS_P1;SDS_P2;PMS_P1;PMS_P2;Temp;Humidity;BMP_temperature;BMP_pressure;BME280_temperature;BME280_humidity;BME280_pressure;Samples;Min_cycle;Max_cycle;Signal;HPM_P1;HPM_P2
2023/12/17 00:01:25;;;;;;;24.95;21.15;;;11.20;99.90;;;;;;5073472;28;20239;-80
2023/12/17 00:03:52;;;;;;;25.77;20.60;;;11.20;99.90;;;;;;5060621;28;20226;-81
2023/12/17 00:06:19;;;;;;;33.22;25.27;;;11.20;99.90;;;;;;5060020;28;20316;-80
2023/12/17 00:08:48;;;;;;;22.20;19.90;;;11.20;99.90;;;;;;5055943;28;20228;-80
2023/12/17 00:11:15;;;;;;;23.33;19.95;;;11.20;99.90;;;;;;5047575;28;20266;-80
2023/12/17 00:13:43;;;;;;;24.58;19.00;;;11.20;99.90;;;;;;5074665;28;20228;-81
2023/12/17 00:16:12;;;;;;;25.40;21.02;;;11.20;99.90;;;;;;5075197;28;20235;-81
2023/12/17 00:18:41;;;;;;;28.42;20.83;;;11.10;99.90;;;;;;5066259;28;20232;-80
2023/12/17 00:21:08;;;;;;;31.85;23.25;;;11.10;99.90;;;;;;5074643;28;20223;-79
2023/12/17 00:23:35;;;;;;;26.00;19.27;;;11.10;99.90;;;;;;5055218;28;20224;-80
2023/12/17 00:26:02;;;;;;;24.90;19.23;;;11.10;99.90;;;;;;5052963;28;20216;-81
2023/12/17 00:28:29;;;;;;;23.83;18.27;;;11.10;99.90;;;;;;5073365;28;20230;-81
2023/12/17 00:30:57;;;;;;;36.70;28.83;;;11.20;99.90;;;;;;5067912;28;20221;-80
2023/12/17 00:33:25;;;;;;;24.70;19.42;;;11.10;99.90;;;;;;5055269;28;20233;-80
2023/12/17 00:35:53;;;;;;;28.50;21.33;;;11.20;99.90;;;;;;5055395;28;20561;-80
2023/12/17 00:38:23;;;;;;;25.27;17.65;;;11.20;99.90;;;;;;5054832;28;20320;-80
2023/12/17 00:40:49;;;;;;;28.10;21.65;;;11.20;99.90;;;;;;5054533;28;20225;-80
2023/12/17 00:43:16;;;;;;;22.38;18.65;;;11.20;99.90;;;;;;5069721;28;20227;-80
2023/12/17 00:45:46;;;;;;;31.48;25.27;;;11.20;99.90;;;;;;5075252;28;20234;-80
2023/12/17 00:48:13;;;;;;;61.22;45.00;;;11.20;99.90;;;;;;5074335;28;20270;-81
2023/12/17 00:50:41;;;;;;;30.15;21.17;;;11.20;99.90;;;;;;5059643;28;20650;-80
2023/12/17 00:53:08;;;;;;;32.95;26.63;;;11.20;99.90;;;;;;5072916;28;20224;-81
2023/12/17 00:55:35;;;;;;;42.33;27.13;;;11.20;99.90;;;;;;5072400;28;20307;-80
2023/12/17 00:58:02;;;;;;;32.53;26.83;;;11.20;99.90;;;;;;5062817;28;20227;-80
2023/12/17 01:00:29;;;;;;;34.45;22.25;;;11.30;99.90;;;;;;5059064;28;20224;-80
2023/12/17 01:02:56;;;;;;;21.67;17.40;;;11.20;99.90;;;;;;5074732;28;20220;-80
2023/12/17 01:05:23;;;;;;;22.58;17.70;;;11.20;99.90;;;;;;5074614;28;20251;-80
2023/12/17 01:07:51;;;;;;;24.25;18.65;;;11.30;99.90;;;;;;5065102;28;20557;-81
2023/12/17 01:10:18;;;;;;;22.58;18.05;;;11.30;99.90;;;;;;5074325;28;20311;-82
2023/12/17 01:12:45;;;;;;;23.63;19.08;;;11.30;99.90;;;;;;5074580;28;20751;-81
2023/12/17 01:15:13;;;;;;;22.60;19.30;;;11.20;99.90;;;;;;5073066;28;20216;-80
2023/12/17 01:17:45;;;;;;;22.88;19.17;;;11.30;99.90;;;;;;5066400;28;20321;-81
2023/12/17 01:20:13;;;;;;;87.38;46.75;;;11.30;99.90;;;;;;5054500;28;20225;-80
2023/12/17 01:22:43;;;;;;;30.00;26.27;;;11.30;99.90;;;;;;5053958;28;20235;-81
2023/12/17 01:25:11;;;;;;;33.70;21.77;;;11.30;99.90;;;;;;5054123;28;20229;-81
2023/12/17 01:27:38;;;;;;;32.50;25.23;;;11.30;99.90;;;;;;5056842;28;20594;-81
2023/12/17 01:30:07;;;;;;;24.75;20.27;;;11.30;99.90;;;;;;5071685;28;20700;-80
2023/12/17 01:32:34;;;;;;;24.88;20.02;;;11.30;99.90;;;;;;5073366;28;20302;-81
2023/12/17 01:35:02;;;;;;;23.52;19.27;;;11.20;99.90;;;;;;5074194;28;20211;-80
2023/12/17 01:37:29;;;;;;;40.13;24.55;;;11.20;99.90;;;;;;5077139;28;20227;-80
2023/12/17 01:39:56;;;;;;;29.33;22.45;;;11.30;99.90;;;;;;5057824;28;20225;-81
2023/12/17 01:42:25;;;;;;;31.25;20.63;;;11.30;99.90;;;;;;5070852;28;20239;-81
2023/12/17 01:44:55;;;;;;;23.77;19.98;;;11.30;99.90;;;;;;5074116;28;20220;-80
2023/12/17 01:47:22;;;;;;;21.83;18.90;;;11.30;99.90;;;;;;5063720;28;20926;-80
2023/12/17 01:49:49;;;;;;;24.10;20.05;;;11.30;99.90;;;;;;5054423;28;20228;-80
2023/12/17 01:52:16;;;;;;;19.58;17.27;;;11.30;99.90;;;;;;5052793;28;20237;-79
2023/12/17 01:54:44;;;;;;;23.45;18.42;;;11.30;99.90;;;;;;5070218;28;20270;-79
2023/12/17 01:57:11;;;;;;;26.65;19.42;;;11.30;99.90;;;;;;5073678;28;20571;-81
2023/12/17 01:59:40;;;;;;;37.45;24.08;;;11.30;99.90;;;;;;5073406;28;20227;-81
2023/12/17 02:02:07;;;;;;;25.35;22.50;;;11.30;99.90;;;;;;5073714;28;20285;-81
2023/12/17 02:04:34;;;;;;;22.50;18.50;;;11.30;99.90;;;;;;5072868;28;20227;-81
2023/12/17 02:07:01;;;;;;;23.45;19.10;;;11.30;99.90;;;;;;5073863;28;20224;-81
2023/12/17 02:09:28;;;;;;;25.35;20.75;;;11.30;99.90;;;;;;5073071;28;20235;-80
2023/12/17 02:11:55;;;;;;;27.35;20.23;;;11.30;99.90;;;;;;5073357;28;20318;-81
2023/12/17 02:14:22;;;;;;;33.75;23.70;;;11.40;99.90;;;;;;5067559;28;20228;-79
2023/12/17 02:16:53;;;;;;;27.70;23.08;;;11.40;99.90;;;;;;5053275;28;20220;-81
2023/12/17 02:19:20;;;;;;;20.10;17.70;;;11.30;99.90;;;;;;5053591;28;20228;-81
2023/12/17 02:21:47;;;;;;;29.50;24.95;;;11.30;99.90;;;;;;5053120;28;20224;-80
2023/12/17 02:24:15;;;;;;;21.55;17.60;;;11.40;99.90;;;;;;5055902;28;20230;-81
2023/12/17 02:26:43;;;;;;;19.83;16.73;;;11.40;99.90;;;;;;5072111;28;20281;-80
2023/12/17 02:29:10;;;;;;;24.40;17.17;;;11.40;99.90;;;;;;5071018;28;20215;-81
2023/12/17 02:31:37;;;;;;;32.97;26.02;;;11.40;99.90;;;;;;5073332;28;20231;-80
2023/12/17 02:34:04;;;;;;;92.35;56.95;;;11.40;99.90;;;;;;5070059;28;20694;-80
2023/12/17 02:36:31;;;;;;;24.13;20.85;;;11.40;99.90;;;;;;5052316;28;20572;-80
2023/12/17 02:38:58;;;;;;;30.33;21.88;;;11.40;99.90;;;;;;5068617;28;20613;-81
2023/12/17 02:41:27;;;;;;;29.52;24.52;;;11.40;99.90;;;;;;5073415;28;20545;-81
2023/12/17 02:43:55;;;;;;;24.80;20.90;;;11.40;99.90;;;;;;5072879;28;20226;-80
2023/12/17 02:46:22;;;;;;;20.63;15.95;;;11.40;99.90;;;;;;5059470;28;20222;-81
2023/12/17 02:48:49;;;;;;;25.27;20.60;;;11.40;99.90;;;;;;5052783;28;20703;-81
2023/12/17 02:51:16;;;;;;;23.30;18.65;;;11.40;99.90;;;;;;5072863;28;20219;-81
2023/12/17 02:53:44;;;;;;;24.55;19.42;;;11.40;99.90;;;;;;5072159;28;20225;-80
2023/12/17 02:56:11;;;;;;;22.17;17.73;;;11.40;99.90;;;;;;5073221;28;20224;-81
2023/12/17 02:58:40;;;;;;;24.10;16.60;;;11.40;99.90;;;;;;5073159;28;20238;-80
2023/12/17 03:01:07;;;;;;;18.23;16.35;;;11.40;99.90;;;;;;5070985;28;20228;-81
2023/12/17 03:03:37;;;;;;;23.77;18.10;;;11.40;99.90;;;;;;5074120;28;20231;-81
2023/12/17 03:06:05;;;;;;;21.00;17.25;;;11.40;99.90;;;;;;5077348;28;20281;-81
2023/12/17 03:08:32;;;;;;;20.35;18.13;;;11.40;99.90;;;;;;5077553;28;20216;-81
2023/12/17 03:10:59;;;;;;;20.30;17.65;;;11.40;99.90;;;;;;5076828;28;20216;-81
2023/12/17 03:13:26;;;;;;;22.10;18.95;;;11.40;99.90;;;;;;5077416;28;20231;-81
2023/12/17 03:15:54;;;;;;;23.15;18.83;;;11.40;99.90;;;;;;5076613;28;20318;-81
2023/12/17 03:18:21;;;;;;;21.73;16.80;;;11.40;99.90;;;;;;5072162;28;20231;-81
2023/12/17 03:20:48;;;;;;;32.90;23.35;;;11.50;99.90;;;;;;5063059;28;20228;-81
2023/12/17 03:23:17;;;;;;;20.35;18.00;;;11.50;99.90;;;;;;5072340;28;20661;-81
2023/12/17 03:25:44;;;;;;;26.88;22.00;;;11.50;99.90;;;;;;5075674;28;20670;-78
2023/12/17 03:28:11;;;;;;;23.20;17.90;;;11.50;99.90;;;;;;5076394;28;20552;-78
2023/12/17 03:30:38;;;;;;;45.38;33.63;;;11.50;99.90;;;;;;5069761;28;20624;-79
2023/12/17 03:33:09;;;;;;;36.53;25.33;;;11.50;99.90;;;;;;5073499;28;20243;-79
2023/12/17 03:35:36;;;;;;;20.00;17.08;;;11.50;99.90;;;;;;5076795;28;20224;-77
2023/12/17 03:38:03;;;;;;;19.33;17.40;;;11.50;99.90;;;;;;5075855;28;20227;-78
2023/12/17 03:40:30;;;;;;;29.08;21.58;;;11.50;99.90;;;;;;5076447;28;20565;-79
2023/12/17 03:42:57;;;;;;;56.05;31.67;;;11.50;99.90;;;;;;5075892;28;20704;-78
2023/12/17 03:45:27;;;;;;;21.95;17.02;;;11.50;99.90;;;;;;5076353;28;20232;-78
2023/12/17 03:47:54;;;;;;;24.92;19.38;;;11.50;99.90;;;;;;5075711;28;20573;-79
2023/12/17 03:50:22;;;;;;;23.10;18.90;;;11.50;99.90;;;;;;5076491;28;20224;-78
2023/12/17 03:52:50;;;;;;;21.63;18.73;;;11.50;99.90;;;;;;5075235;28;20236;-78
2023/12/17 03:55:17;;;;;;;17.58;15.75;;;11.60;99.90;;;;;;5076114;28;20224;-78
2023/12/17 03:57:44;;;;;;;20.75;16.33;;;11.60;99.90;;;;;;5065862;28;20232;-79
2023/12/17 04:00:12;;;;;;;22.50;16.95;;;11.60;99.90;;;;;;5056268;28;20228;-79
2023/12/17 04:02:39;;;;;;;18.65;16.70;;;11.60;99.90;;;;;;5055718;28;20236;-78
2023/12/17 04:05:07;;;;;;;19.48;16.65;;;11.60;99.90;;;;;;5055967;28;20224;-78
2023/12/17 04:07:37;;;;;;;23.13;17.20;;;11.60;99.90;;;;;;5056276;28;20232;-78
2023/12/17 04:10:05;;;;;;;23.63;19.08;;;11.60;99.90;;;;;;5055478;28;20239;-78
2023/12/17 04:12:32;;;;;;;21.40;17.10;;;11.60;99.90;;;;;;5056238;28;20237;-78
2023/12/17 04:14:59;;;;;;;20.23;16.38;;;11.60;99.90;;;;;;5054477;28;20228;-77
2023/12/17 04:17:26;;;;;;;19.60;16.10;;;11.50;99.90;;;;;;5056040;28;20228;-78
2023/12/17 04:19:53;;;;;;;20.98;16.65;;;11.60;99.90;;;;;;5055379;28;20235;-78
2023/12/17 04:22:20;;;;;;;19.00;16.63;;;11.60;99.90;;;;;;5055580;28;20229;-78
2023/12/17 04:24:49;;;;;;;34.95;24.75;;;11.60;99.90;;;;;;5055202;28;20229;-78
2023/12/17 04:27:16;;;;;;;23.45;18.88;;;11.50;99.90;;;;;;5056025;28;20220;-78
2023/12/17 04:29:43;;;;;;;21.98;19.58;;;11.50;99.90;;;;;;5055606;28;20231;-78
2023/12/17 04:32:11;;;;;;;22.05;17.60;;;11.50;99.90;;;;;;5069459;28;20551;-78
2023/12/17 04:34:41;;;;;;;18.92;16.40;;;11.50;99.90;;;;;;5076034;28;20666;-78
2023/12/17 04:37:08;;;;;;;20.90;18.55;;;11.50;99.90;;;;;;5074989;28;20220;-78
2023/12/17 04:39:35;;;;;;;55.78;36.92;;;11.50;99.90;;;;;;5075820;28;20440;-77
2023/12/17 04:42:03;;;;;;;27.70;21.70;;;11.50;99.90;;;;;;5075245;28;20224;-78
2023/12/17 04:44:30;;;;;;;23.02;17.42;;;11.50;99.90;;;;;;5075943;28;20221;-78
2023/12/17 04:46:57;;;;;;;21.23;16.25;;;11.50;99.90;;;;;;5075874;28;20282;-77
2023/12/17 04:49:26;;;;;;;18.08;16.02;;;11.50;99.90;;;;;;5076146;28;20220;-78
2023/12/17 04:51:53;;;;;;;17.83;15.30;;;11.50;99.90;;;;;;5077263;28;20220;-77
2023/12/17 04:54:20;;;;;;;21.33;16.65;;;11.60;99.90;;;;;;5084591;28;20226;-77
2023/12/17 04:56:48;;;;;;;20.92;17.95;;;11.50;99.90;;;;;;5088059;28;20266;-78
2023/12/17 04:59:16;;;;;;;18.58;15.40;;;11.50;99.90;;;;;;5086259;28;20216;-77
2023/12/17 05:01:44;;;;;;;24.33;18.90;;;11.50;99.90;;;;;;5075894;28;20215;-78
2023/12/17 05:04:11;;;;;;;22.10;18.83;;;11.50;99.90;;;;;;5074617;28;20223;-78
2023/12/17 05:06:37;;;;;;;21.40;16.80;;;11.60;99.90;;;;;;5078744;28;20233;-78
2023/12/17 05:09:07;;;;;;;30.17;21.88;;;11.50;99.90;;;;;;5075983;28;20693;-77
2023/12/17 05:11:35;;;;;;;22.63;18.40;;;11.50;99.90;;;;;;5075988;28;20216;-78
2023/12/17 05:14:02;;;;;;;24.52;21.65;;;11.50;99.90;;;;;;5074440;28;20346;-78
2023/12/17 05:16:30;;;;;;;28.60;21.05;;;11.50;99.90;;;;;;5074846;28;20303;-77
2023/12/17 05:19:00;;;;;;;22.30;17.10;;;11.50;99.90;;;;;;5074510;28;20279;-77
2023/12/17 05:21:27;;;;;;;20.67;16.65;;;11.50;99.90;;;;;;5074981;28;20234;-77
2023/12/17 05:23:54;;;;;;;16.25;14.55;;;11.50;99.90;;;;;;5074208;28;20220;-78
2023/12/17 05:26:21;;;;;;;24.73;21.80;;;11.50;99.90;;;;;;5073701;28;20231;-77
2023/12/17 05:28:48;;;;;;;22.35;18.10;;;11.50;99.90;;;;;;5074245;28;20230;-77
2023/12/17 05:31:16;;;;;;;19.08;16.67;;;11.50;99.90;;;;;;5073600;28;20563;-78
2023/12/17 05:33:46;;;;;;;49.60;34.20;;;11.50;99.90;;;;;;5073909;28;20311;-77
2023/12/17 05:36:13;;;;;;;16.17;14.48;;;11.50;99.90;;;;;;5073371;28;20223;-77
2023/12/17 05:38:40;;;;;;;20.85;18.35;;;11.50;99.90;;;;;;5073606;28;20216;-77
2023/12/17 05:41:07;;;;;;;21.63;19.35;;;11.50;99.90;;;;;;5073001;28;20228;-78
2023/12/17 05:43:35;;;;;;;21.40;18.80;;;11.50;99.90;;;;;;5074093;28;20215;-78
2023/12/17 05:46:02;;;;;;;18.95;16.13;;;11.50;99.90;;;;;;5073300;28;20226;-77
2023/12/17 05:48:29;;;;;;;22.08;16.95;;;11.50;99.90;;;;;;5073342;28;20311;-77
2023/12/17 05:50:58;;;;;;;21.38;17.98;;;11.50;99.90;;;;;;5073948;28;20223;-77
2023/12/17 05:53:25;;;;;;;17.83;15.18;;;11.50;99.90;;;;;;5074031;28;20238;-79
2023/12/17 05:55:53;;;;;;;24.50;19.85;;;11.60;99.90;;;;;;5073935;28;20216;-78
2023/12/17 05:58:20;;;;;;;19.67;16.65;;;11.50;99.90;;;;;;5073690;28;20619;-78
2023/12/17 06:00:47;;;;;;;17.92;15.50;;;11.50;99.90;;;;;;5074047;28;20227;-78
2023/12/17 06:03:15;;;;;;;19.45;15.25;;;11.50;99.90;;;;;;5073316;28;20235;-78
2023/12/17 06:05:44;;;;;;;17.60;15.50;;;11.50;99.90;;;;;;5073911;28;20694;-77
2023/12/17 06:08:13;;;;;;;16.42;14.68;;;11.50;99.90;;;;;;5073426;28;20235;-77
2023/12/17 06:10:40;;;;;;;18.58;16.60;;;11.50;99.90;;;;;;5073715;28;20682;-78
2023/12/17 06:13:07;;;;;;;20.45;17.00;;;11.60;99.90;;;;;;5073048;28;20224;-78
2023/12/17 06:15:34;;;;;;;18.83;15.15;;;11.50;99.90;;;;;;5073722;28;20220;-79
2023/12/17 06:18:01;;;;;;;17.00;14.45;;;11.60;99.90;;;;;;5073052;28;20243;-79
2023/12/17 06:20:30;;;;;;;18.17;14.80;;;11.60;99.90;;;;;;5073667;28;20304;-78
2023/12/17 06:22:57;;;;;;;20.17;16.35;;;11.60;99.90;;;;;;5073366;28;20251;-78
2023/12/17 06:25:26;;;;;;;22.98;18.42;;;11.60;99.90;;;;;;5072123;28;20342;-78
2023/12/17 06:27:53;;;;;;;18.92;16.60;;;11.60;99.90;;;;;;5073727;28;20673;-78
2023/12/17 06:30:20;;;;;;;16.75;14.02;;;11.60;99.90;;;;;;5073156;28;20542;-78
2023/12/17 06:32:47;;;;;;;13.93;12.40;;;11.70;99.90;;;;;;5073150;28;20239;-78
2023/12/17 06:35:14;;;;;;;15.38;12.80;;;11.60;99.90;;;;;;5073535;28;20246;-77
2023/12/17 06:37:41;;;;;;;14.48;12.40;;;11.60;99.90;;;;;;5073060;28;20688;-77
2023/12/17 06:40:10;;;;;;;16.70;14.02;;;11.60;99.90;;;;;;5072742;28;20219;-78
2023/12/17 06:42:38;;;;;;;16.73;14.40;;;11.50;99.90;;;;;;5073730;28;20314;-77
2023/12/17 06:45:06;;;;;;;14.70;12.10;;;11.60;99.90;;;;;;5073224;28;20231;-79
2023/12/17 06:47:33;;;;;;;16.02;14.18;;;11.60;99.90;;;;;;5073639;28;20223;-78
2023/12/17 06:50:00;;;;;;;14.00;12.45;;;11.60;99.90;;;;;;5073877;28;20250;-78
2023/12/17 06:52:27;;;;;;;14.27;12.77;;;11.60;99.90;;;;;;5072923;28;20657;-78
2023/12/17 06:54:54;;;;;;;17.13;14.68;;;11.60;99.90;;;;;;5073442;28;20236;-78
2023/12/17 06:57:21;;;;;;;15.25;13.60;;;11.60;99.90;;;;;;5073032;28;20239;-78
2023/12/17 06:59:50;;;;;;;14.15;12.75;;;11.60;99.90;;;;;;5072835;28;20250;-78
2023/12/17 07:02:17;;;;;;;14.05;12.50;;;11.60;99.90;;;;;;5072665;28;20239;-78
2023/12/17 07:04:44;;;;;;;17.65;15.27;;;11.60;99.90;;;;;;5073066;28;20220;-78
2023/12/17 07:07:11;;;;;;;17.05;13.77;;;11.60;99.90;;;;;;5072818;28;20307;-78
2023/12/17 07:09:38;;;;;;;17.15;12.55;;;11.60;99.90;;;;;;5072847;28;20220;-78
2023/12/17 07:12:06;;;;;;;22.23;16.38;;;11.60;99.90;;;;;;5072859;28;20342;-79
2023/12/17 07:14:32;;;;;;;15.45;12.88;;;11.60;99.90;;;;;;5073147;28;20226;-78
2023/12/17 07:17:01;;;;;;;16.83;14.30;;;11.60;99.90;;;;;;5073298;28;20215;-78
2023/12/17 07:19:28;;;;;;;13.63;12.20;;;11.60;99.90;;;;;;5073141;28;20224;-79
2023/12/17 07:21:55;;;;;;;13.60;10.65;;;11.70;99.90;;;;;;5073182;28;20230;-78
2023/12/17 07:24:22;;;;;;;13.43;11.13;;;11.70;99.90;;;;;;5072369;28;20235;-78
2023/12/17 07:26:51;;;;;;;13.13;11.68;;;11.70;99.90;;;;;;5072893;28;20224;-78
2023/12/17 07:29:18;;;;;;;13.10;11.73;;;11.70;99.90;;;;;;5072740;28;20224;-77
2023/12/17 07:31:45;;;;;;;12.73;11.40;;;11.70;99.90;;;;;;5073602;28;20228;-78
2023/12/17 07:34:13;;;;;;;14.38;12.05;;;11.70;99.90;;;;;;5072452;28;20626;-76
2023/12/17 07:36:40;;;;;;;12.30;10.85;;;11.70;99.90;;;;;;5072823;28;20228;-77
2023/12/17 07:39:07;;;;;;;11.10;9.75;;;11.70;99.90;;;;;;5072385;28;20251;-78
2023/12/17 07:41:36;;;;;;;10.68;9.65;;;11.70;99.90;;;;;;5072648;28;20705;-76
2023/12/17 07:44:03;;;;;;;11.10;10.00;;;11.70;99.90;;;;;;5072894;28;20228;-77
2023/12/17 07:46:30;;;;;;;12.20;10.90;;;11.70;99.90;;;;;;5072300;28;20307;-77
2023/12/17 07:48:57;;;;;;;14.35;11.20;;;11.70;99.90;;;;;;5073055;28;20299;-77
2023/12/17 07:51:26;;;;;;;14.98;11.57;;;11.70;99.90;;;;;;5076186;28;20227;-77
2023/12/17 07:53:53;;;;;;;11.52;10.30;;;11.70;99.90;;;;;;5076072;28;20227;-77
2023/12/17 07:56:20;;;;;;;10.45;9.32;;;11.70;99.90;;;;;;5075704;28;20247;-76
2023/12/17 07:58:47;;;;;;;10.30;9.30;;;11.70;99.90;;;;;;5076614;28;20220;-78
2023/12/17 08:01:14;;;;;;;10.27;9.27;;;11.80;99.90;;;;;;5075657;28;20224;-78
2023/12/17 08:03:41;;;;;;;11.52;9.98;;;11.80;99.90;;;;;;5076178;28;20254;-78
2023/12/17 08:06:09;;;;;;;10.05;8.95;;;11.80;99.90;;;;;;5075958;28;20310;-77
2023/12/17 08:08:37;;;;;;;10.52;9.43;;;11.80;99.90;;;;;;5075998;28;20646;-78
2023/12/17 08:11:05;;;;;;;10.00;9.00;;;11.80;99.90;;;;;;5076112;28;20243;-78
2023/12/17 08:13:33;;;;;;;11.07;9.95;;;11.80;99.90;;;;;;5075501;28;20642;-77
2023/12/17 08:15:59;;;;;;;14.02;11.65;;;11.80;99.90;;;;;;5076178;28;20216;-78
2023/12/17 08:18:26;;;;;;;12.18;10.25;;;11.80;99.90;;;;;;5075295;28;20238;-78
2023/12/17 08:20:54;;;;;;;12.55;11.10;;;11.80;99.90;;;;;;5075927;28;20219;-78
2023/12/17 08:23:21;;;;;;;10.95;9.85;;;11.80;99.90;;;;;;5075152;28;20235;-78
2023/12/17 08:25:49;;;;;;;11.15;10.05;;;11.90;99.90;;;;;;5075347;28;20589;-78
2023/12/17 08:28:17;;;;;;;10.30;9.25;;;11.90;99.90;;;;;;5075466;28;20232;-78
2023/12/17 08:30:44;;;;;;;11.05;10.05;;;11.90;99.90;;;;;;5075670;28;20220;-78
2023/12/17 08:33:10;;;;;;;9.60;8.60;;;11.90;99.90;;;;;;5075685;28;20602;-78
2023/12/17 08:35:38;;;;;;;10.10;9.20;;;11.90;99.90;;;;;;5075266;28;20228;-78
2023/12/17 08:38:06;;;;;;;11.68;10.48;;;11.90;99.90;;;;;;5075764;28;20235;-77
2023/12/17 08:40:33;;;;;;;10.88;9.75;;;11.90;99.90;;;;;;5075111;28;20224;-77
2023/12/17 08:43:01;;;;;;;12.35;10.88;;;11.90;99.90;;;;;;5075487;28;20219;-77
2023/12/17 08:45:28;;;;;;;13.10;10.48;;;11.90;99.90;;;;;;5075228;28;20224;-77
2023/12/17 08:47:56;;;;;;;11.68;10.48;;;11.90;99.90;;;;;;5075660;28;20224;-77
2023/12/17 08:50:23;;;;;;;13.25;11.65;;;12.00;99.90;;;;;;5064934;28;20763;-77
2023/12/17 08:52:50;;;;;;;12.85;11.45;;;12.00;99.90;;;;;;5075150;28;20680;-77
2023/12/17 08:55:17;;;;;;;13.57;12.27;;;12.00;99.90;;;;;;5074990;28;20731;-77
2023/12/17 08:57:44;;;;;;;11.30;9.73;;;11.90;99.90;;;;;;5075255;28;20250;-78
2023/12/17 09:00:17;;;;;;;12.02;10.40;;;11.90;99.90;;;;;;5075267;28;20614;-77
2023/12/17 09:02:44;;;;;;;9.55;8.57;;;11.90;99.90;;;;;;5074744;28;20307;-77
2023/12/17 09:05:11;;;;;;;11.00;9.98;;;11.90;99.90;;;;;;5074844;28;20230;-78
2023/12/17 09:07:38;;;;;;;11.45;10.32;;;11.90;99.90;;;;;;5074638;28;20228;-78
2023/12/17 09:10:06;;;;;;;9.40;8.60;;;11.90;99.90;;;;;;5074926;28;20588;-78
2023/12/17 09:12:33;;;;;;;9.70;8.70;;;11.90;99.90;;;;;;5074337;28;20232;-78
2023/12/17 09:15:00;;;;;;;11.48;10.27;;;11.90;99.90;;;;;;5074831;28;20223;-77
2023/12/17 09:17:28;;;;;;;9.77;8.90;;;11.90;99.90;;;;;;5073778;28;20230;-78
2023/12/17 09:19:55;;;;;;;7.70;7.00;;;11.90;99.90;;;;;;5074663;28;20219;-77
2023/12/17 09:22:22;;;;;;;10.48;9.43;;;11.90;99.90;;;;;;5072876;28;20232;-78
2023/12/17 09:24:49;;;;;;;10.82;9.75;;;11.90;99.90;;;;;;5064933;28;20228;-78
2023/12/17 09:27:19;;;;;;;10.25;9.15;;;11.90;99.90;;;;;;5074768;28;20238;-78
2023/12/17 09:29:46;;;;;;;11.02;9.93;;;11.90;99.90;;;;;;5074313;28;20223;-79
2023/12/17 09:32:13;;;;;;;11.10;10.07;;;11.90;99.90;;;;;;5074633;28;20224;-78
2023/12/17 09:34:41;;;;;;;11.82;10.63;;;12.00;99.90;;;;;;5074164;28;20235;-78
2023/12/17 09:37:08;;;;;;;11.52;9.98;;;12.00;99.90;;;;;;5074020;28;20231;-77
2023/12/17 09:39:35;;;;;;;8.75;7.95;;;12.00;99.90;;;;;;5073862;28;20232;-78
2023/12/17 09:42:02;;;;;;;9.25;8.38;;;12.00;99.90;;;;;;5074147;28;20224;-78
2023/12/17 09:44:29;;;;;;;9.85;8.85;;;12.00;99.90;;;;;;5073552;28;20307;-78
2023/12/17 09:46:57;;;;;;;10.02;7.85;;;12.00;99.90;;;;;;5074301;28;20569;-79
2023/12/17 09:49:24;;;;;;;9.77;8.88;;;11.90;99.90;;;;;;5073088;28;20270;-79
2023/12/17 09:52:01;;;;;;;11.57;10.45;;;12.00;99.90;;;;;;5073781;28;22017;-78
2023/12/17 09:54:28;;;;;;;9.90;8.90;;;12.00;99.90;;;;;;5074083;28;20273;-79
2023/12/17 09:56:55;;;;;;;9.68;8.70;;;12.00;99.90;;;;;;5074466;28;20231;-79
2023/12/17 09:59:22;;;;;;;11.38;9.45;;;12.00;99.90;;;;;;5075073;28;20305;-79
2023/12/17 10:01:58;;;;;;;8.60;7.90;;;12.00;99.90;;;;;;5075858;28;20307;-80
2023/12/17 10:04:26;;;;;;;10.80;9.70;;;12.00;99.90;;;;;;5076277;28;20227;-79
2023/12/17 10:06:54;;;;;;;8.82;8.13;;;12.00;99.90;;;;;;5073868;28;20670;-78
2023/12/17 10:09:21;;;;;;;10.40;9.30;;;12.10;99.90;;;;;;5074122;28;20232;-78
2023/12/17 10:11:48;;;;;;;8.48;7.70;;;12.10;99.90;;;;;;5072990;28;20263;-79
2023/12/17 10:14:22;;;;;;;10.13;8.52;;;12.10;99.90;;;;;;5074518;28;20235;-79
2023/12/17 10:16:50;;;;;;;10.63;9.30;;;12.10;99.90;;;;;;5076936;28;20240;-78
2023/12/17 10:19:19;;;;;;;9.20;8.23;;;12.10;99.90;;;;;;5077759;28;20262;-79
2023/12/17 10:21:46;;;;;;;8.93;7.43;;;12.10;99.90;;;;;;5073997;28;20223;-78
2023/12/17 10:24:18;;;;;;;9.32;7.40;;;12.10;99.90;;;;;;5073607;28;20247;-78
2023/12/17 10:26:45;;;;;;;9.25;8.35;;;12.20;99.90;;;;;;5073276;28;20220;-78
2023/12/17 10:29:15;;;;;;;8.95;8.07;;;12.20;99.90;;;;;;5073971;28;20216;-79
2023/12/17 10:31:42;;;;;;;9.73;8.70;;;12.20;99.90;;;;;;5073362;28;20538;-79
2023/12/17 10:34:18;;;;;;;9.88;8.85;;;12.10;99.90;;;;;;5073588;28;20599;-79
2023/12/17 10:36:46;;;;;;;7.82;7.03;;;12.10;99.90;;;;;;5072502;28;20294;-78
2023/12/17 10:39:16;;;;;;;8.88;7.97;;;12.10;99.90;;;;;;5073705;28;20228;-79
2023/12/17 10:41:49;;;;;;;9.85;8.85;;;12.10;99.90;;;;;;5073007;28;20315;-79
2023/12/17 10:44:17;;;;;;;10.68;9.68;;;12.10;99.90;;;;;;5073655;28;20227;-79
2023/12/17 10:46:49;;;;;;;8.77;7.88;;;12.20;99.90;;;;;;5072823;28;20307;-79
2023/12/17 10:49:16;;;;;;;7.93;7.13;;;12.20;99.90;;;;;;5073545;28;20235;-79
2023/12/17 10:51:44;;;;;;;9.10;8.20;;;12.20;99.90;;;;;;5072077;28;20274;-79
2023/12/17 10:54:12;;;;;;;7.40;6.70;;;12.20;99.90;;;;;;5072772;28;20285;-79
2023/12/17 10:56:44;;;;;;;8.40;7.70;;;12.20;99.90;;;;;;5073086;28;20215;-79
2023/12/17 10:59:14;;;;;;;7.85;7.05;;;12.20;99.90;;;;;;5073545;28;20231;-78
2023/12/17 11:01:42;;;;;;;8.45;7.65;;;12.20;99.90;;;;;;5072826;28;20231;-78
2023/12/17 11:04:09;;;;;;;10.00;8.90;;;12.30;99.90;;;;;;5073198;28;20228;-78
2023/12/17 11:06:37;;;;;;;9.40;7.70;;;12.30;99.90;;;;;;5072690;28;20228;-78
2023/12/17 11:09:05;;;;;;;7.85;7.05;;;12.30;99.90;;;;;;5072796;28;20228;-78
2023/12/17 11:11:33;;;;;;;8.55;7.80;;;12.30;99.90;;;;;;5073034;28;20678;-78
2023/12/17 11:14:02;;;;;;;9.48;8.38;;;12.20;99.90;;;;;;5070697;28;20277;-78
2023/12/17 11:16:30;;;;;;;8.13;7.43;;;12.30;99.90;;;;;;5073188;28;20224;-79
2023/12/17 11:19:00;;;;;;;8.70;7.90;;;12.30;99.90;;;;;;5072844;28;20293;-78
2023/12/17 11:21:28;;;;;;;8.48;7.20;;;12.30;99.90;;;;;;5073383;28;20311;-78
2023/12/17 11:23:56;;;;;;;9.73;7.95;;;12.30;99.90;;;;;;5074921;28;20228;-78
2023/12/17 11:26:26;;;;;;;8.98;7.50;;;12.30;99.90;;;;;;5087656;28;20235;-77
2023/12/17 11:28:53;;;;;;;11.23;9.60;;;12.20;99.90;;;;;;5088923;28;20545;-78
2023/12/17 11:31:22;;;;;;;9.68;8.77;;;12.30;99.90;;;;;;5089049;28;20216;-79
2023/12/17 11:33:52;;;;;;;11.18;9.27;;;12.30;99.90;;;;;;5091320;28;20235;-78
2023/12/17 11:36:20;;;;;;;9.57;8.68;;;12.30;99.90;;;;;;5087377;28;20228;-78
2023/12/17 11:38:47;;;;;;;8.82;7.90;;;12.30;99.90;;;;;;5086115;28;20307;-78
2023/12/17 11:41:15;;;;;;;7.57;6.97;;;12.30;99.90;;;;;;5087160;28;20236;-78
2023/12/17 11:43:42;;;;;;;9.20;8.30;;;12.30;99.90;;;;;;5082922;28;20257;-78
2023/12/17 11:46:12;;;;;;;7.85;7.20;;;12.30;99.90;;;;;;5084200;28;20224;-78
2023/12/17 11:48:43;;;;;;;8.88;7.20;;;12.30;99.90;;;;;;5082852;28;20695;-78
2023/12/17 11:51:10;;;;;;;7.68;6.93;;;12.40;99.90;;;;;;5081622;28;20228;-77
2023/12/17 11:53:42;;;;;;;8.73;7.68;;;12.30;99.90;;;;;;5082182;28;20243;-78
2023/12/17 11:56:09;;;;;;;6.88;6.25;;;12.30;99.90;;;;;;5084226;28;20243;-80
2023/12/17 11:58:47;;;;;;;9.63;7.85;;;12.30;99.90;;;;;;5083925;28;20231;-77
2023/12/17 12:01:15;;;;;;;6.75;6.13;;;12.30;99.90;;;;;;5083698;28;20524;-79
2023/12/17 12:03:43;;;;;;;7.15;6.53;;;12.30;99.90;;;;;;5083747;28;20220;-77
2023/12/17 12:06:11;;;;;;;8.00;7.30;;;12.30;99.90;;;;;;5084119;28;20269;-79
2023/12/17 12:08:40;;;;;;;7.65;7.00;;;12.30;99.90;;;;;;5076114;28;20220;-78
2023/12/17 12:11:08;;;;;;;8.80;8.02;;;12.30;99.90;;;;;;5076776;28;20247;-78
2023/12/17 12:13:38;;;;;;;7.20;6.47;;;12.30;99.90;;;;;;5077838;28;20681;-78
2023/12/17 12:16:11;;;;;;;7.35;6.75;;;12.30;99.90;;;;;;5078263;28;20692;-79
2023/12/17 12:18:42;;;;;;;7.15;6.55;;;12.30;99.90;;;;;;5078689;28;20311;-78
2023/12/17 12:21:18;;;;;;;7.30;6.55;;;12.40;99.90;;;;;;5073653;28;20251;-78
2023/12/17 12:23:51;;;;;;;9.20;8.25;;;12.40;99.90;;;;;;5075477;28;20238;-77
2023/12/17 12:26:19;;;;;;;9.38;8.40;;;12.30;99.90;;;;;;5076724;28;20222;-77
2023/12/17 12:28:50;;;;;;;9.18;8.30;;;12.30;99.90;;;;;;5078393;28;20717;-78
2023/12/17 12:31:18;;;;;;;8.15;7.40;;;12.30;99.90;;;;;;5077503;28;20259;-78
2023/12/17 12:33:53;;;;;;;9.05;8.20;;;12.30;99.90;;;;;;5078655;28;20230;-78
2023/12/17 12:36:21;;;;;;;7.88;6.65;;;12.20;99.90;;;;;;5075689;28;20219;-78